sensor_id;sensor_type;location;lat;lon;timestamp;pressure;altitude;pressure_sealevel;temperature;humidity
77799;BME280;66989;50.426;15.352;2023-12-20T00:02:14;97826.00;;;3.93;97.26
77799;BME280;66989;50.426;15.352;2023-12-20T00:04:39;97816.91;;;4.00;96.62
77799;BME280;66989;50.426;15.352;2023-12-20T00:07:05;97802.66;;;4.05;96.01
77799;BME280;66989;50.426;15.352;2023-12-20T00:09:30;97801.47;;;4.11;95.62
77799;BME280;66989;50.426;15.352;2023-12-20T00:11:55;97801.22;;;4.16;95.39
77799;BME280;66989;50.426;15.352;2023-12-20T00:14:22;97799.28;;;4.19;94.76
77799;BME280;66989;50.426;15.352;2023-12-20T00:16:47;97802.63;;;4.21;94.45
77799;BME280;66989;50.426;15.352;2023-12-20T00:19:12;97790.25;;;4.25;94.60
77799;BME280;66989;50.426;15.352;2023-12-20T00:21:38;97793.59;;;4.27;94.11
77799;BME280;66989;50.426;15.352;2023-12-20T00:24:03;97799.50;;;4.30;94.01
77799;BME280;66989;50.426;15.352;2023-12-20T00:26:29;97802.00;;;4.32;93.92
77799;BME280;66989;50.426;15.352;2023-12-20T00:28:54;97804.56;;;4.33;93.36
77799;BME280;66989;50.426;15.352;2023-12-20T00:31:20;97793.34;;;4.31;93.33
77799;BME280;66989;50.426;15.352;2023-12-20T00:33:45;97795.22;;;4.29;92.96
77799;BME280;66989;50.426;15.352;2023-12-20T00:36:12;97784.78;;;4.29;92.70
77799;BME280;66989;50.426;15.352;2023-12-20T00:38:37;97776.19;;;4.27;93.12
77799;BME280;66989;50.426;15.352;2023-12-20T00:41:03;97771.06;;;4.26;92.31
77799;BME280;66989;50.426;15.352;2023-12-20T00:43:28;97770.41;;;4.22;92.50
77799;BME280;66989;50.426;15.352;2023-12-20T00:45:54;97780.94;;;4.21;92.21
77799;BME280;66989;50.426;15.352;2023-12-20T00:48:20;97774.03;;;4.20;92.22
77799;BME280;66989;50.426;15.352;2023-12-20T00:50:46;97768.91;;;4.18;92.41
77799;BME280;66989;50.426;15.352;2023-12-20T00:53:11;97759.41;;;4.17;92.82
77799;BME280;66989;50.426;15.352;2023-12-20T00:55:36;97768.97;;;4.17;93.15
77799;BME280;66989;50.426;15.352;2023-12-20T00:58:02;97771.69;;;4.15;93.26
77799;BME280;66989;50.426;15.352;2023-12-20T01:00:27;97770.00;;;4.14;93.73
77799;BME280;66989;50.426;15.352;2023-12-20T01:02:53;97753.63;;;4.12;93.69
77799;BME280;66989;50.426;15.352;2023-12-20T01:05:19;97748.47;;;4.11;93.69
77799;BME280;66989;50.426;15.352;2023-12-20T01:07:48;97746.97;;;4.06;94.37
77799;BME280;66989;50.426;15.352;2023-12-20T01:10:14;97754.78;;;4.06;94.85
77799;BME280;66989;50.426;15.352;2023-12-20T01:12:39;97748.72;;;4.06;94.53
77799;BME280;66989;50.426;15.352;2023-12-20T01:15:06;97751.28;;;4.07;94.47
77799;BME280;66989;50.426;15.352;2023-12-20T01:17:31;97750.50;;;4.05;94.46
77799;BME280;66989;50.426;15.352;2023-12-20T01:19:57;97746.22;;;4.04;95.02
77799;BME280;66989;50.426;15.352;2023-12-20T01:22:23;97749.00;;;4.01;95.29
77799;BME280;66989;50.426;15.352;2023-12-20T01:24:49;97742.19;;;3.99;95.74
77799;BME280;66989;50.426;15.352;2023-12-20T01:27:14;97735.38;;;3.96;96.03
77799;BME280;66989;50.426;15.352;2023-12-20T01:29:39;97728.59;;;3.94;96.05
77799;BME280;66989;50.426;15.352;2023-12-20T01:32:05;97728.69;;;3.92;96.25
77799;BME280;66989;50.426;15.352;2023-12-20T01:34:30;97731.34;;;3.91;96.08
77799;BME280;66989;50.426;15.352;2023-12-20T01:36:56;97722.63;;;3.92;96.32
77799;BME280;66989;50.426;15.352;2023-12-20T01:39:23;97711.25;;;3.93;96.21
77799;BME280;66989;50.426;15.352;2023-12-20T01:41:48;97710.31;;;3.94;95.95
77799;BME280;66989;50.426;15.352;2023-12-20T01:44:13;97705.28;;;3.91;95.99
77799;BME280;66989;50.426;15.352;2023-12-20T01:46:39;97702.66;;;3.91;96.04
77799;BME280;66989;50.426;15.352;2023-12-20T01:49:04;97699.22;;;3.90;95.64
77799;BME280;66989;50.426;15.352;2023-12-20T01:51:30;97704.44;;;3.90;95.57
77799;BME280;66989;50.426;15.352;2023-12-20T01:53:57;97702.75;;;3.89;95.58
77799;BME280;66989;50.426;15.352;2023-12-20T01:56:23;97692.53;;;3.86;95.78
77799;BME280;66989;50.426;15.352;2023-12-20T01:58:48;97684.78;;;3.85;95.72
77799;BME280;66989;50.426;15.352;2023-12-20T02:01:14;97674.34;;;3.85;95.95
77799;BME280;66989;50.426;15.352;2023-12-20T02:03:41;97664.84;;;3.83;95.92
77799;BME280;66989;50.426;15.352;2023-12-20T02:06:07;97669.13;;;3.85;96.08
77799;BME280;66989;50.426;15.352;2023-12-20T02:08:33;97671.66;;;3.86;96.39
77799;BME280;66989;50.426;15.352;2023-12-20T02:10:58;97657.75;;;3.86;96.17
77799;BME280;66989;50.426;15.352;2023-12-20T02:13:24;97656.09;;;3.85;96.13
77799;BME280;66989;50.426;15.352;2023-12-20T02:15:51;97666.44;;;3.86;96.16
77799;BME280;66989;50.426;15.352;2023-12-20T02:18:17;97668.13;;;3.87;96.41
77799;BME280;66989;50.426;15.352;2023-12-20T02:20:42;97666.34;;;3.88;95.94
77799;BME280;66989;50.426;15.352;2023-12-20T02:23:08;97668.97;;;3.88;95.83
77799;BME280;66989;50.426;15.352;2023-12-20T02:25:33;97663.75;;;3.88;96.01
77799;BME280;66989;50.426;15.352;2023-12-20T02:27:58;97659.38;;;3.88;96.38
77799;BME280;66989;50.426;15.352;2023-12-20T02:30:24;97667.28;;;3.87;96.86
77799;BME280;66989;50.426;15.352;2023-12-20T02:32:50;97660.31;;;3.87;96.48
77799;BME280;66989;50.426;15.352;2023-12-20T02:35:15;97664.56;;;3.88;96.92
77799;BME280;66989;50.426;15.352;2023-12-20T02:37:40;97654.06;;;3.90;96.61
77799;BME280;66989;50.426;15.352;2023-12-20T02:40:06;97659.25;;;3.90;96.70
77799;BME280;66989;50.426;15.352;2023-12-20T02:42:33;97649.78;;;3.89;96.97
77799;BME280;66989;50.426;15.352;2023-12-20T02:44:58;97647.25;;;3.87;97.03
77799;BME280;66989;50.426;15.352;2023-12-20T02:47:24;97648.94;;;3.88;97.33
77799;BME280;66989;50.426;15.352;2023-12-20T02:49:49;97652.47;;;3.87;97.65
77799;BME280;66989;50.426;15.352;2023-12-20T02:52:15;97649.94;;;3.86;97.69
77799;BME280;66989;50.426;15.352;2023-12-20T02:54:40;97644.72;;;3.86;97.83
77799;BME280;66989;50.426;15.352;2023-12-20T02:57:06;97646.44;;;3.87;98.17
77799;BME280;66989;50.426;15.352;2023-12-20T02:59:31;97650.03;;;3.84;98.17
77799;BME280;66989;50.426;15.352;2023-12-20T03:01:56;97652.63;;;3.84;98.20
77799;BME280;66989;50.426;15.352;2023-12-20T03:04:22;97657.97;;;3.82;98.87
77799;BME280;66989;50.426;15.352;2023-12-20T03:06:47;97647.63;;;3.81;98.81
77799;BME280;66989;50.426;15.352;2023-12-20T03:09:13;97651.91;;;3.82;99.14
77799;BME280;66989;50.426;15.352;2023-12-20T03:11:38;97651.97;;;3.80;99.32
77799;BME280;66989;50.426;15.352;2023-12-20T03:14:04;97651.13;;;3.80;99.47
77799;BME280;66989;50.426;15.352;2023-12-20T03:16:31;97652.91;;;3.79;99.85
77799;BME280;66989;50.426;15.352;2023-12-20T03:18:58;97655.50;;;3.79;99.57
77799;BME280;66989;50.426;15.352;2023-12-20T03:21:23;97649.38;;;3.80;99.97
77799;BME280;66989;50.426;15.352;2023-12-20T03:23:49;97655.63;;;3.78;99.97
77799;BME280;66989;50.426;15.352;2023-12-20T03:26:14;97651.13;;;3.80;100.00
77799;BME280;66989;50.426;15.352;2023-12-20T03:28:40;97655.50;;;3.79;100.00
77799;BME280;66989;50.426;15.352;2023-12-20T03:31:05;97656.44;;;3.78;100.00
77799;BME280;66989;50.426;15.352;2023-12-20T03:33:30;97657.38;;;3.77;100.00
77799;BME280;66989;50.426;15.352;2023-12-20T03:35:56;97650.56;;;3.75;100.00
77799;BME280;66989;50.426;15.352;2023-12-20T03:38:22;97648.78;;;3.75;100.00
77799;BME280;66989;50.426;15.352;2023-12-20T03:40:51;97646.28;;;3.74;100.00
77799;BME280;66989;50.426;15.352;2023-12-20T03:43:16;97645.34;;;3.75;100.00
77799;BME280;66989;50.426;15.352;2023-12-20T03:45:42;97647.97;;;3.75;100.00
77799;BME280;66989;50.426;15.352;2023-12-20T03:48:08;97642.69;;;3.76;100.00
77799;BME280;66989;50.426;15.352;2023-12-20T03:50:34;97651.41;;;3.75;100.00
77799;BME280;66989;50.426;15.352;2023-12-20T03:53:00;97653.09;;;3.76;100.00
77799;BME280;66989;50.426;15.352;2023-12-20T03:55:26;97649.66;;;3.76;100.00
77799;BME280;66989;50.426;15.352;2023-12-20T03:57:51;97652.16;;;3.77;100.00
77799;BME280;66989;50.426;15.352;2023-12-20T04:00:17;97651.22;;;3.78;100.00
77799;BME280;66989;50.426;15.352;2023-12-20T04:02:43;97663.59;;;3.75;100.00
77799;BME280;66989;50.426;15.352;2023-12-20T04:05:09;97653.38;;;3.72;100.00
77799;BME280;66989;50.426;15.352;2023-12-20T04:07:37;97654.00;;;3.75;100.00
77799;BME280;66989;50.426;15.352;2023-12-20T04:10:03;97663.78;;;3.72;100.00
77799;BME280;66989;50.426;15.352;2023-12-20T04:12:29;97655.72;;;3.76;100.00
77799;BME280;66989;50.426;15.352;2023-12-20T04:14:54;97657.47;;;3.76;100.00
77799;BME280;66989;50.426;15.352;2023-12-20T04:17:21;97653.94;;;3.77;100.00
77799;BME280;66989;50.426;15.352;2023-12-20T04:19:50;97648.63;;;3.78;100.00
77799;BME280;66989;50.426;15.352;2023-12-20T04:22:15;97649.66;;;3.76;100.00
77799;BME280;66989;50.426;15.352;2023-12-20T04:24:41;97651.50;;;3.74;100.00
77799;BME280;66989;50.426;15.352;2023-12-20T04:27:09;97656.72;;;3.74;100.00
77799;BME280;66989;50.426;15.352;2023-12-20T04:29:34;97654.94;;;3.74;100.00
77799;BME280;66989;50.426;15.352;2023-12-20T04:32:01;97651.50;;;3.74;100.00
77799;BME280;66989;50.426;15.352;2023-12-20T04:34:26;97658.59;;;3.72;100.00
77799;BME280;66989;50.426;15.352;2023-12-20T04:36:52;97657.53;;;3.74;100.00
77799;BME280;66989;50.426;15.352;2023-12-20T04:39:18;97662.88;;;3.73;100.00
77799;BME280;66989;50.426;15.352;2023-12-20T04:41:43;97655.97;;;3.72;100.00
77799;BME280;66989;50.426;15.352;2023-12-20T04:44:09;97654.19;;;3.72;100.00
77799;BME280;66989;50.426;15.352;2023-12-20T04:46:34;97646.47;;;3.71;100.00
77799;BME280;66989;50.426;15.352;2023-12-20T04:49:00;97650.75;;;3.72;100.00
77799;BME280;66989;50.426;15.352;2023-12-20T04:51:25;97650.00;;;3.70;100.00
77799;BME280;66989;50.426;15.352;2023-12-20T04:53:51;97655.19;;;3.70;100.00
77799;BME280;66989;50.426;15.352;2023-12-20T04:56:16;97661.25;;;3.70;100.00
77799;BME280;66989;50.426;15.352;2023-12-20T04:58:42;97657.81;;;3.70;100.00
77799;BME280;66989;50.426;15.352;2023-12-20T05:01:08;97656.97;;;3.69;100.00
77799;BME280;66989;50.426;15.352;2023-12-20T05:03:34;97660.41;;;3.70;100.00
77799;BME280;66989;50.426;15.352;2023-12-20T05:05:59;97655.13;;;3.71;100.00
77799;BME280;66989;50.426;15.352;2023-12-20T05:08:24;97651.69;;;3.71;100.00
77799;BME280;66989;50.426;15.352;2023-12-20T05:10:51;97658.66;;;3.70;100.00
77799;BME280;66989;50.426;15.352;2023-12-20T05:13:17;97663.78;;;3.72;100.00
77799;BME280;66989;50.426;15.352;2023-12-20T05:15:42;97660.34;;;3.71;100.00
77799;BME280;66989;50.426;15.352;2023-12-20T05:18:07;97657.53;;;3.74;100.00
77799;BME280;66989;50.426;15.352;2023-12-20T05:20:33;97660.16;;;3.74;100.00
77799;BME280;66989;50.426;15.352;2023-12-20T05:22:58;97674.03;;;3.75;100.00
77799;BME280;66989;50.426;15.352;2023-12-20T05:25:23;97669.66;;;3.75;100.00
77799;BME280;66989;50.426;15.352;2023-12-20T05:27:49;97666.13;;;3.76;100.00
77799;BME280;66989;50.426;15.352;2023-12-20T05:30:14;97677.31;;;3.78;100.00
77799;BME280;66989;50.426;15.352;2023-12-20T05:32:40;97674.53;;;3.81;100.00
77799;BME280;66989;50.426;15.352;2023-12-20T05:35:07;97677.16;;;3.81;100.00
77799;BME280;66989;50.426;15.352;2023-12-20T05:37:33;97677.16;;;3.81;100.00
77799;BME280;66989;50.426;15.352;2023-12-20T05:39:58;97681.44;;;3.82;100.00
77799;BME280;66989;50.426;15.352;2023-12-20T05:42:23;97691.09;;;3.80;100.00
77799;BME280;66989;50.426;15.352;2023-12-20T05:44:49;97686.81;;;3.79;100.00
77799;BME280;66989;50.426;15.352;2023-12-20T05:47:14;97679.91;;;3.78;100.00
77799;BME280;66989;50.426;15.352;2023-12-20T05:49:40;97677.31;;;3.78;100.00
77799;BME280;66989;50.426;15.352;2023-12-20T05:52:05;97676.47;;;3.78;100.00
77799;BME280;66989;50.426;15.352;2023-12-20T05:54:30;97677.31;;;3.78;100.00
77799;BME280;66989;50.426;15.352;2023-12-20T05:56:56;97688.47;;;3.80;100.00
77799;BME280;66989;50.426;15.352;2023-12-20T05:59:21;97678.97;;;3.79;100.00
77799;BME280;66989;50.426;15.352;2023-12-20T06:01:47;97678.03;;;3.80;100.00
77799;BME280;66989;50.426;15.352;2023-12-20T06:04:12;97670.16;;;3.82;100.00
77799;BME280;66989;50.426;15.352;2023-12-20T06:06:42;97673.69;;;3.81;100.00
77799;BME280;66989;50.426;15.352;2023-12-20T06:09:07;97678.03;;;3.80;100.00
77799;BME280;66989;50.426;15.352;2023-12-20T06:11:33;97675.44;;;3.80;100.00
77799;BME280;66989;50.426;15.352;2023-12-20T06:13:58;97674.81;;;3.77;100.00
77799;BME280;66989;50.426;15.352;2023-12-20T06:16:24;97676.56;;;3.76;100.00
77799;BME280;66989;50.426;15.352;2023-12-20T06:18:49;97670.59;;;3.74;100.00
77799;BME280;66989;50.426;15.352;2023-12-20T06:21:15;97668.91;;;3.73;99.97
77799;BME280;66989;50.426;15.352;2023-12-20T06:23:41;97672.44;;;3.72;99.93
77799;BME280;66989;50.426;15.352;2023-12-20T06:26:06;97670.78;;;3.71;99.89
77799;BME280;66989;50.426;15.352;2023-12-20T06:28:32;97676.91;;;3.70;100.00
77799;BME280;66989;50.426;15.352;2023-12-20T06:30:57;97676.06;;;3.70;100.00
77799;BME280;66989;50.426;15.352;2023-12-20T06:33:23;97677.00;;;3.69;100.00
77799;BME280;66989;50.426;15.352;2023-12-20T06:35:49;97681.47;;;3.67;100.00
77799;BME280;66989;50.426;15.352;2023-12-20T06:38:17;97680.63;;;3.66;100.00
77799;BME280;66989;50.426;15.352;2023-12-20T06:40:43;97687.69;;;3.64;100.00
77799;BME280;66989;50.426;15.352;2023-12-20T06:43:08;97692.91;;;3.64;100.00
77799;BME280;66989;50.426;15.352;2023-12-20T06:45:34;97694.50;;;3.67;100.00
77799;BME280;66989;50.426;15.352;2023-12-20T06:47:59;97688.50;;;3.65;100.00
77799;BME280;66989;50.426;15.352;2023-12-20T06:50:25;97696.44;;;3.63;100.00
77799;BME280;66989;50.426;15.352;2023-12-20T06:52:50;97695.50;;;3.64;100.00
77799;BME280;66989;50.426;15.352;2023-12-20T06:55:17;97709.31;;;3.66;100.00
77799;BME280;66989;50.426;15.352;2023-12-20T06:57:42;97710.22;;;3.65;100.00
77799;BME280;66989;50.426;15.352;2023-12-20T07:00:08;97712.06;;;3.63;100.00
77799;BME280;66989;50.426;15.352;2023-12-20T07:02:34;97709.47;;;3.63;100.00
77799;BME280;66989;50.426;15.352;2023-12-20T07:04:59;97719.91;;;3.63;100.00
77799;BME280;66989;50.426;15.352;2023-12-20T07:07:25;97724.28;;;3.63;100.00
77799;BME280;66989;50.426;15.352;2023-12-20T07:09:51;97725.94;;;3.64;100.00
77799;BME280;66989;50.426;15.352;2023-12-20T07:12:16;97728.75;;;3.61;100.00
77799;BME280;66989;50.426;15.352;2023-12-20T07:14:44;97725.28;;;3.60;100.00
77799;BME280;66989;50.426;15.352;2023-12-20T07:17:10;97735.78;;;3.59;100.00
77799;BME280;66989;50.426;15.352;2023-12-20T07:19:37;97740.16;;;3.58;100.00
77799;BME280;66989;50.426;15.352;2023-12-20T07:22:04;97741.84;;;3.59;100.00
77799;BME280;66989;50.426;15.352;2023-12-20T07:24:29;97747.88;;;3.60;100.00
77799;BME280;66989;50.426;15.352;2023-12-20T07:26:55;97747.97;;;3.58;100.00
77799;BME280;66989;50.426;15.352;2023-12-20T07:29:20;97752.25;;;3.59;100.00
77799;BME280;66989;50.426;15.352;2023-12-20T07:31:45;97750.44;;;3.61;100.00
77799;BME280;66989;50.426;15.352;2023-12-20T07:34:11;97746.13;;;3.60;100.00
77799;BME280;66989;50.426;15.352;2023-12-20T07:36:36;97749.66;;;3.59;100.00
77799;BME280;66989;50.426;15.352;2023-12-20T07:39:02;97754.81;;;3.61;100.00
77799;BME280;66989;50.426;15.352;2023-12-20T07:41:28;97754.72;;;3.62;100.00
77799;BME280;66989;50.426;15.352;2023-12-20T07:43:53;97759.84;;;3.64;100.00
77799;BME280;66989;50.426;15.352;2023-12-20T07:46:20;97758.84;;;3.66;100.00
77799;BME280;66989;50.426;15.352;2023-12-20T07:48:47;97758.84;;;3.66;100.00
77799;BME280;66989;50.426;15.352;2023-12-20T07:51:13;97756.28;;;3.65;100.00
77799;BME280;66989;50.426;15.352;2023-12-20T07:53:38;97750.81;;;3.69;100.00
77799;BME280;66989;50.426;15.352;2023-12-20T07:56:14;97758.66;;;3.69;100.00
77799;BME280;66989;50.426;15.352;2023-12-20T07:58:39;97767.50;;;3.67;100.00
77799;BME280;66989;50.426;15.352;2023-12-20T08:01:04;97754.47;;;3.67;100.00
77799;BME280;66989;50.426;15.352;2023-12-20T08:03:30;97750.19;;;3.66;100.00
77799;BME280;66989;50.426;15.352;2023-12-20T08:05:55;97750.09;;;3.67;100.00
77799;BME280;66989;50.426;15.352;2023-12-20T08:08:21;97761.44;;;3.66;100.00
77799;BME280;66989;50.426;15.352;2023-12-20T08:10:47;97774.47;;;3.66;100.00
77799;BME280;66989;50.426;15.352;2023-12-20T08:13:13;97771.03;;;3.66;100.00
77799;BME280;66989;50.426;15.352;2023-12-20T08:15:38;97763.13;;;3.67;100.00
77799;BME280;66989;50.426;15.352;2023-12-20T08:18:04;97768.25;;;3.69;100.00
77799;BME280;66989;50.426;15.352;2023-12-20T08:20:29;97767.31;;;3.70;100.00
77799;BME280;66989;50.426;15.352;2023-12-20T08:22:55;97770.75;;;3.70;100.00
77799;BME280;66989;50.426;15.352;2023-12-20T08:25:20;97762.03;;;3.71;100.00
77799;BME280;66989;50.426;15.352;2023-12-20T08:27:46;97762.88;;;3.72;100.00
77799;BME280;66989;50.426;15.352;2023-12-20T08:30:12;97748.16;;;3.71;100.00
77799;BME280;66989;50.426;15.352;2023-12-20T08:32:38;97759.31;;;3.73;100.00
77799;BME280;66989;50.426;15.352;2023-12-20T08:35:05;97752.91;;;3.78;100.00
77799;BME280;66989;50.426;15.352;2023-12-20T08:37:31;97758.81;;;3.82;100.00
77799;BME280;66989;50.426;15.352;2023-12-20T08:39:56;97766.53;;;3.83;100.00
77799;BME280;66989;50.426;15.352;2023-12-20T08:42:22;97758.81;;;3.82;100.00
77799;BME280;66989;50.426;15.352;2023-12-20T08:44:49;97764.88;;;3.82;100.00
77799;BME280;66989;50.426;15.352;2023-12-20T08:47:15;97767.38;;;3.84;100.00
77799;BME280;66989;50.426;15.352;2023-12-20T08:49:41;97763.84;;;3.85;100.00
77799;BME280;66989;50.426;15.352;2023-12-20T08:52:06;97759.47;;;3.86;100.00
77799;BME280;66989;50.426;15.352;2023-12-20T08:54:32;97767.78;;;3.92;100.00
77799;BME280;66989;50.426;15.352;2023-12-20T08:56:57;97768.63;;;3.93;100.00
77799;BME280;66989;50.426;15.352;2023-12-20T08:59:22;97771.97;;;3.95;100.00
77799;BME280;66989;50.426;15.352;2023-12-20T09:01:48;97775.44;;;3.95;99.98
77799;BME280;66989;50.426;15.352;2023-12-20T09:04:19;97779.56;;;3.99;99.95
77799;BME280;66989;50.426;15.352;2023-12-20T09:06:44;97776.69;;;4.04;99.76
77799;BME280;66989;50.426;15.352;2023-12-20T09:09:10;97778.44;;;4.03;98.90
77799;BME280;66989;50.426;15.352;2023-12-20T09:11:38;97779.28;;;4.04;98.84
77799;BME280;66989;50.426;15.352;2023-12-20T09:14:04;97774.06;;;4.04;98.44
77799;BME280;66989;50.426;15.352;2023-12-20T09:16:29;97782.84;;;4.03;98.52
77799;BME280;66989;50.426;15.352;2023-12-20T09:18:56;97788.97;;;4.02;98.69
77799;BME280;66989;50.426;15.352;2023-12-20T09:21:22;97782.06;;;4.01;98.89
77799;BME280;66989;50.426;15.352;2023-12-20T09:23:47;97781.16;;;4.02;98.67
77799;BME280;66989;50.426;15.352;2023-12-20T09:26:13;97777.63;;;4.03;98.50
77799;BME280;66989;50.426;15.352;2023-12-20T09:28:38;97774.22;;;4.01;98.65
77799;BME280;66989;50.426;15.352;2023-12-20T09:31:06;97782.00;;;4.02;98.32
77799;BME280;66989;50.426;15.352;2023-12-20T09:33:32;97772.78;;;4.11;98.42
77799;BME280;66989;50.426;15.352;2023-12-20T09:35:58;97775.91;;;4.18;97.39
77799;BME280;66989;50.426;15.352;2023-12-20T09:38:23;97769.75;;;4.19;97.43
77799;BME280;66989;50.426;15.352;2023-12-20T09:40:49;97765.94;;;4.24;97.04
77799;BME280;66989;50.426;15.352;2023-12-20T09:43:15;97777.22;;;4.25;96.78
77799;BME280;66989;50.426;15.352;2023-12-20T09:45:46;97771.06;;;4.26;97.22
77799;BME280;66989;50.426;15.352;2023-12-20T09:48:12;97765.69;;;4.29;96.58
77799;BME280;66989;50.426;15.352;2023-12-20T09:50:40;97768.41;;;4.42;96.30
77799;BME280;66989;50.426;15.352;2023-12-20T09:53:08;97756.88;;;4.60;96.35
77799;BME280;66989;50.426;15.352;2023-12-20T09:55:36;97751.38;;;4.79;95.02
77799;BME280;66989;50.426;15.352;2023-12-20T09:58:01;97738.13;;;5.10;93.22
77799;BME280;66989;50.426;15.352;2023-12-20T10:00:27;97741.16;;;6.12;89.95
77799;BME280;66989;50.426;15.352;2023-12-20T10:02:57;97740.06;;;7.42;84.23
77799;BME280;66989;50.426;15.352;2023-12-20T10:05:28;97726.56;;;8.67;77.87
77799;BME280;66989;50.426;15.352;2023-12-20T10:07:54;97728.56;;;9.96;71.44
77799;BME280;66989;50.426;15.352;2023-12-20T10:10:19;97731.66;;;10.75;69.29
77799;BME280;66989;50.426;15.352;2023-12-20T10:15:26;97735.81;;;11.39;66.99
77799;BME280;66989;50.426;15.352;2023-12-20T10:17:51;97743.25;;;10.94;65.56
77799;BME280;66989;50.426;15.352;2023-12-20T10:20:17;97737.22;;;9.87;68.62
77799;BME280;66989;50.426;15.352;2023-12-20T10:22:42;97744.75;;;9.15;71.83
77799;BME280;66989;50.426;15.352;2023-12-20T10:25:08;97744.41;;;8.50;72.27
77799;BME280;66989;50.426;15.352;2023-12-20T10:27:33;97756.03;;;7.76;76.53
77799;BME280;66989;50.426;15.352;2023-12-20T10:29:59;97754.94;;;7.18;79.80
77799;BME280;66989;50.426;15.352;2023-12-20T10:32:26;97752.66;;;6.75;81.52
77799;BME280;66989;50.426;15.352;2023-12-20T10:34:53;97752.84;;;6.59;83.57
77799;BME280;66989;50.426;15.352;2023-12-20T10:37:19;97747.19;;;6.53;84.34
77799;BME280;66989;50.426;15.352;2023-12-20T10:39:50;97755.47;;;6.47;85.38
77799;BME280;66989;50.426;15.352;2023-12-20T10:42:17;97745.84;;;6.34;84.74
77799;BME280;66989;50.426;15.352;2023-12-20T10:44:43;97745.97;;;6.06;86.57
77799;BME280;66989;50.426;15.352;2023-12-20T10:47:09;97744.91;;;5.96;86.86
77799;BME280;66989;50.426;15.352;2023-12-20T10:49:36;97739.66;;;5.96;87.98
77799;BME280;66989;50.426;15.352;2023-12-20T10:52:03;97734.94;;;5.88;87.67
77799;BME280;66989;50.426;15.352;2023-12-20T10:54:30;97733.94;;;5.76;87.97
77799;BME280;66989;50.426;15.352;2023-12-20T10:56:57;97734.56;;;5.67;88.92
77799;BME280;66989;50.426;15.352;2023-12-20T10:59:24;97732.22;;;5.62;88.97
77799;BME280;66989;50.426;15.352;2023-12-20T11:01:50;97730.53;;;5.61;88.92
77799;BME280;66989;50.426;15.352;2023-12-20T11:04:23;97725.50;;;5.58;89.75
77799;BME280;66989;50.426;15.352;2023-12-20T11:06:56;97725.00;;;5.66;88.83
77799;BME280;66989;50.426;15.352;2023-12-20T11:09:25;97709.72;;;5.60;89.10
77799;BME280;66989;50.426;15.352;2023-12-20T11:12:01;97708.78;;;5.61;89.59
77799;BME280;66989;50.426;15.352;2023-12-20T11:15:15;97710.94;;;5.54;89.06
77799;BME280;66989;50.426;15.352;2023-12-20T11:17:34;97712.28;;;5.47;89.47
77799;BME280;66989;50.426;15.352;2023-12-20T11:22:35;97705.69;;;5.42;90.10
77799;BME280;66989;50.426;15.352;2023-12-20T11:25:06;97710.16;;;5.39;89.91
77799;BME280;66989;50.426;15.352;2023-12-20T11:27:33;97715.38;;;5.39;89.49
77799;BME280;66989;50.426;15.352;2023-12-20T11:29:59;97710.44;;;5.35;89.15
77799;BME280;66989;50.426;15.352;2023-12-20T11:37:33;97707.00;;;5.34;88.68
77799;BME280;66989;50.426;15.352;2023-12-20T11:40:05;97694.38;;;5.41;87.67
77799;BME280;66989;50.426;15.352;2023-12-20T11:42:38;97691.66;;;5.43;87.91
77799;BME280;66989;50.426;15.352;2023-12-20T11:45:04;97679.22;;;5.46;87.48
77799;BME280;66989;50.426;15.352;2023-12-20T11:47:31;97672.56;;;5.55;86.53
77799;BME280;66989;50.426;15.352;2023-12-20T11:49:57;97672.91;;;5.63;86.14
77799;BME280;66989;50.426;15.352;2023-12-20T11:52:24;97676.81;;;5.70;86.01
77799;BME280;66989;50.426;15.352;2023-12-20T11:54:49;97671.38;;;5.73;85.92
77799;BME280;66989;50.426;15.352;2023-12-20T11:57:16;97672.66;;;5.80;85.52
77799;BME280;66989;50.426;15.352;2023-12-20T11:59:42;97663.84;;;5.81;85.62
77799;BME280;66989;50.426;15.352;2023-12-20T12:02:07;97648.16;;;5.81;85.18
77799;BME280;66989;50.426;15.352;2023-12-20T12:04:34;97649.28;;;5.77;85.41
77799;BME280;66989;50.426;15.352;2023-12-20T12:06:59;97643.03;;;5.80;85.17
77799;BME280;66989;50.426;15.352;2023-12-20T12:09:24;97651.53;;;5.83;84.91
77799;BME280;66989;50.426;15.352;2023-12-20T12:11:50;97646.41;;;5.95;84.13
77799;BME280;66989;50.426;15.352;2023-12-20T12:14:15;97629.91;;;7.66;80.00
77799;BME280;66989;50.426;15.352;2023-12-20T12:16:44;97627.06;;;9.71;72.17
77799;BME280;66989;50.426;15.352;2023-12-20T12:19:20;97615.53;;;12.14;63.37
77799;BME280;66989;50.426;15.352;2023-12-20T12:21:47;97608.63;;;13.96;54.55
77799;BME280;66989;50.426;15.352;2023-12-20T12:24:12;97597.66;;;15.53;49.64
77799;BME280;66989;50.426;15.352;2023-12-20T12:26:38;97586.47;;;16.89;46.09
77799;BME280;66989;50.426;15.352;2023-12-20T12:29:03;97593.25;;;16.99;45.16
77799;BME280;66989;50.426;15.352;2023-12-20T12:31:28;97600.13;;;18.02;44.37
77799;BME280;66989;50.426;15.352;2023-12-20T12:33:55;97592.06;;;16.94;44.35
77799;BME280;66989;50.426;15.352;2023-12-20T12:36:20;97591.06;;;15.15;48.02
77799;BME280;66989;50.426;15.352;2023-12-20T12:38:47;97610.13;;;13.45;53.61
77799;BME280;66989;50.426;15.352;2023-12-20T12:41:13;97614.97;;;12.10;56.63
77799;BME280;66989;50.426;15.352;2023-12-20T12:43:38;97615.50;;;10.77;60.90
77799;BME280;66989;50.426;15.352;2023-12-20T12:46:04;97615.56;;;9.72;65.19
77799;BME280;66989;50.426;15.352;2023-12-20T12:48:29;97623.94;;;8.68;69.98
77799;BME280;66989;50.426;15.352;2023-12-20T12:50:55;97609.44;;;8.07;72.30
77799;BME280;66989;50.426;15.352;2023-12-20T12:53:24;97616.03;;;7.88;72.14
77799;BME280;66989;50.426;15.352;2023-12-20T12:55:49;97617.75;;;7.65;73.37
77799;BME280;66989;50.426;15.352;2023-12-20T12:58:15;97617.88;;;7.40;73.33
77799;BME280;66989;50.426;15.352;2023-12-20T13:00:40;97615.31;;;7.27;75.06